Eugene, OR (97404)

7:59 AM PST on December 06, 2016 (GMT -0800)
Santa Clara | | Change Station

Elev 406 ft 44.11 °N, 123.15 °W | Updated 2 seconds ago

Overcast
Overcast
33.8 °F
Feels Like 30 °F
N
4.0
Wind Variable Wind from North
Gusts 4.0 mph

Today
High -- | Low -- °F
--% Chance of Precip.
Yesterday
High -- | Low -- °F
Precip. -- in
Pressure 30.03 in
Visibility 10.0 miles
Clouds Mostly Cloudy 400 ft
Mostly Cloudy 1900 ft
Overcast 10000 ft
Windchill 30 °F
Dew Point 32 °F
Humidity 94%
Rainfall 0.09 in
Snow Depth Not available.
7:33 AM 4:34 PM
Waxing Crescent, 43% visible
METAR KEUG 061554Z 35003KT 10SM BKN004 BKN019 OVC100 02/01 A3002 RMK AO2 SLP169 T00170006
Pressure 30.03 in
Visibility 10.0 miles
Clouds Mostly Cloudy 400 ft
Mostly Cloudy 1900 ft
Overcast 10000 ft
Windchill 30 °F
Dew Point 32 °F
Humidity 94%
Rainfall 0.09 in
Snow Depth Not available.
7:33 AM 4:34 PM
Waxing Crescent, 43% visible
METAR KEUG 061554Z 35003KT 10SM BKN004 BKN019 OVC100 02/01 A3002 RMK AO2 SLP169 T00170006

10-Day Weather Forecast

Almanac

Astronomy

Dec. 06, 2016 Rise Set
Actual Time
Civil Twilight
Nautical Twilight
Astronomical Twilight
Moon
Length of Visible Light
Length of Day
Tomorrow will be .
, % of the Moon is Illuminated

Today's Extremes

State Highs State Lows

Community

WunderPhotos

Upload Photos

1,955,959 photos uploaded!

WunderBlog® & News

Nearby

Air Quality

  Air Quality AQ Index Pollutant
Not available.

Snow Depth

Station Depth Elevation

Earthquake Activity

City Distance Mag. Time & Date
Minimum magnitude displayed is 2.5.

Coastal Water Temperatures

Place Temperature

Stations

Nearby Weather Stations

Station Location Temp. Windchill Dew Point Humidity Wind Precip. Elev Updated Type
                   

Watches & Warnings

There are currently no watches in effect.